»·PEaware :: DLH411 KBOS-EDDF

DLH411 :: KBOS-EDDF

FLIGHT INFORMATION

Flight Status: Arrived
Operator:
Lufthansa
More flights by this operator :: More flights under this callsign
Pilot: Drew L. (13237)
Aircraft: BOEING 747-400 (WINGLETS)
(B744)
More flights by this aircraft type
Origin: KBOS Logan Intl
United States
Destination: EDDF Frankfurt/Main
Germany
More flights between these airports :: More routes between these airports
Route: EBONY N555A NEEKO/M085F330 NATX KESIX IBROD/N0487F330 UMBEL LAMSO UL603 SOGPO UT149 OTSOP T149 LIPMI T150 ROLIS
File this flight plan on PilotEdge
Remarks: PBN / A1B1C1D1L1O1S2 DOF / 171203 REG / N488SB EET / KZBW0025 CZQM0026 CZQX0058 CZUL0123 CZQX0129 54N050W0202 56N040W0243 EGGX0323 58N020W0359 EGPX0438 EGTT0503 EHAA0536 EDVV0552 EDGG0559 OPR / DLH RALT / CYYR BIKF RMK / TCAS SIMBRIEF
Altitude:
(Current/Filed)
33,000ft
Speed:
(Current/Filed)
487kts
Departed: 02-Dec-17 05:56 PM
Arrived: 03-Dec-17 12:08 AM
Distance/Time
Traveled:
3177nm/6:12
Distance/Time
To Go:
Arrived

Flight Plot

Page will automatically refresh every two minutes.

Flight plan parsing failed; only flown route is shown


Map Options




Map Legend


Flown Route
Filed Route
Departure Airport
Arrival Airport
Navaid (VOR, NDB)
Fix

Horizontal Profiles

Position Reports

Time Latitude Longitude Heading Altitude Ground
Speed
02-Dec-17 17:31 42.370922 -71.021175 126 35ft 0kts
02-Dec-17 17:32 42.370922 -71.021175 126 35ft 0kts
02-Dec-17 17:33 42.370922 -71.021175 126 35ft 0kts
02-Dec-17 17:34 42.370922 -71.021175 126 35ft 0kts
02-Dec-17 17:35 42.370922 -71.021175 126 35ft 0kts
02-Dec-17 17:36 42.370922 -71.021175 126 35ft 0kts
02-Dec-17 17:37 42.370922 -71.021175 126 35ft 0kts
02-Dec-17 17:38 42.370922 -71.021175 126 35ft 0kts
02-Dec-17 17:39 42.370922 -71.021175 126 35ft 0kts
02-Dec-17 17:40 42.370922 -71.021175 126 35ft 0kts
02-Dec-17 17:41 42.370922 -71.021175 126 35ft 0kts
02-Dec-17 17:42 42.370922 -71.021175 126 35ft 0kts
02-Dec-17 17:43 42.370922 -71.021175 126 35ft 0kts
02-Dec-17 17:44 42.370922 -71.021175 126 35ft 0kts
02-Dec-17 17:45 42.370922 -71.021175 126 35ft 0kts
02-Dec-17 17:46 42.370922 -71.021175 126 35ft 0kts
02-Dec-17 17:47 42.370922 -71.021175 126 35ft 0kts
02-Dec-17 17:48 42.370922 -71.021175 126 35ft 0kts
02-Dec-17 17:49 42.370922 -71.021175 126 35ft 0kts
02-Dec-17 17:50 42.370922 -71.021175 126 35ft 0kts
02-Dec-17 17:51 42.370923 -71.021175 126 35ft 0kts
02-Dec-17 17:52 42.371159 -71.021606 126 35ft 1kts
02-Dec-17 17:53 42.371385 -71.022274 99 35ft 2kts
02-Dec-17 17:54 42.371395 -71.022392 95 35ft 0kts
02-Dec-17 17:55 42.372155 -71.020539 77 35ft 8kts
02-Dec-17 17:56 42.370210 -71.015812 134 35ft 19kts
02-Dec-17 17:57 42.366411 -71.012629 195 35ft 15kts
02-Dec-17 17:58 42.362277 -71.014820 198 35ft 20kts
02-Dec-17 17:59 42.356987 -71.016346 199 35ft 21kts
02-Dec-17 18:00 42.352043 -71.012111 124 35ft 12kts
02-Dec-17 18:01 42.354499 -71.010120 19 35ft 80kts
02-Dec-17 18:02 42.394169 -70.988464 46 1848ft 175kts
02-Dec-17 18:03 42.420178 -70.942912 52 3911ft 195kts
02-Dec-17 18:04 42.460394 -70.876289 49 5774ft 256kts
02-Dec-17 18:05 42.518100 -70.788028 44 9292ft 271kts
02-Dec-17 18:06 42.563083 -70.722059 44 11072ft 303kts
02-Dec-17 18:07 42.641560 -70.608649 45 12122ft 400kts
02-Dec-17 18:08 42.706703 -70.514454 44 14336ft 422kts
02-Dec-17 18:09 42.788398 -70.396275 43 17027ft 440kts
02-Dec-17 18:10 42.873626 -70.272048 44 19273ft 461kts
02-Dec-17 18:11 42.961974 -70.142095 44 21516ft 476kts
02-Dec-17 18:12 43.053770 -70.007501 43 23395ft 496kts
02-Dec-17 18:13 43.148287 -69.869111 43 25316ft 510kts
02-Dec-17 18:14 43.246524 -69.725720 43 27051ft 527kts
02-Dec-17 18:15 43.347300 -69.576239 44 28706ft 544kts
02-Dec-17 18:16 43.450035 -69.422442 44 30848ft 549kts
02-Dec-17 18:17 43.552332 -69.268093 45 32764ft 551kts
02-Dec-17 18:18 43.654648 -69.112235 45 33302ft 563kts
02-Dec-17 18:19 43.759858 -68.952318 45 33296ft 564kts
02-Dec-17 18:20 43.864992 -68.791827 45 33298ft 564kts
02-Dec-17 18:21 43.970158 -68.630345 45 33300ft 564kts
02-Dec-17 18:22 44.074408 -68.469204 45 33324ft 559kts
02-Dec-17 18:23 44.174941 -68.314039 45 33315ft 560kts
02-Dec-17 18:24 44.278229 -68.153333 46 33318ft 560kts
02-Dec-17 18:25 44.379817 -67.993682 45 33321ft 555kts
02-Dec-17 18:26 44.481106 -67.833437 45 33322ft 555kts
02-Dec-17 18:27 44.582369 -67.672355 45 33324ft 554kts
02-Dec-17 18:28 44.684010 -67.509913 45 33159ft 554kts
02-Dec-17 18:29 44.784517 -67.348007 45 33005ft 554kts
02-Dec-17 18:30 44.884730 -67.184482 45 32995ft 553kts
02-Dec-17 18:31 44.994235 -67.035036 36 32998ft 548kts
02-Dec-17 18:32 45.109722 -66.900111 35 32997ft 547kts
02-Dec-17 18:33 45.225617 -66.761231 36 32998ft 547kts
02-Dec-17 18:34 45.339580 -66.620042 36 33000ft 548kts
02-Dec-17 18:35 45.453518 -66.477422 36 33085ft 547kts
02-Dec-17 18:36 45.566080 -66.336218 37 33313ft 547kts
02-Dec-17 18:37 45.679809 -66.191467 37 33319ft 548kts
02-Dec-17 18:38 45.793059 -66.047088 37 33319ft 547kts
02-Dec-17 18:39 45.906610 -65.902396 37 33321ft 547kts
02-Dec-17 18:40 46.019370 -65.757929 37 33315ft 547kts
02-Dec-17 18:41 46.131370 -65.613524 37 33296ft 546kts
02-Dec-17 18:42 46.244503 -65.468451 37 33297ft 546kts
02-Dec-17 18:43 46.356067 -65.323395 38 33289ft 547kts
02-Dec-17 18:44 46.468011 -65.174752 38 33290ft 547kts
02-Dec-17 18:45 46.580146 -65.026041 38 33292ft 547kts
02-Dec-17 18:46 46.692218 -64.877409 38 33118ft 547kts
02-Dec-17 18:47 46.804032 -64.728218 38 32999ft 547kts
02-Dec-17 18:48 46.915867 -64.577916 38 33000ft 547kts
02-Dec-17 18:49 47.027181 -64.427348 38 33002ft 545kts
02-Dec-17 18:50 47.135908 -64.279435 39 32992ft 546kts
02-Dec-17 18:51 47.247139 -64.127665 39 32993ft 546kts
02-Dec-17 18:52 47.358136 -63.975229 39 32995ft 546kts
02-Dec-17 18:53 47.468548 -63.822315 39 32996ft 547kts
02-Dec-17 18:54 47.579155 -63.668222 39 32998ft 547kts
02-Dec-17 18:55 47.689050 -63.514282 39 33000ft 547kts
02-Dec-17 18:56 47.799086 -63.359225 39 33002ft 547kts
02-Dec-17 18:57 47.907883 -63.203696 40 32994ft 548kts
02-Dec-17 18:58 48.017241 -63.046646 40 32996ft 548kts
02-Dec-17 18:59 48.125982 -62.890720 40 32993ft 548kts
02-Dec-17 19:00 48.235430 -62.734683 40 32995ft 548kts
02-Dec-17 19:01 48.345152 -62.575813 40 32996ft 548kts
02-Dec-17 19:02 48.453949 -62.416397 40 32998ft 548kts
02-Dec-17 19:03 48.562200 -62.256287 41 32991ft 549kts
02-Dec-17 19:04 48.670548 -62.094407 41 32993ft 549kts
02-Dec-17 19:05 48.779510 -61.931783 41 32994ft 549kts
02-Dec-17 19:06 48.887874 -61.769336 41 32996ft 549kts
02-Dec-17 19:07 48.996870 -61.604784 43 33004ft 562kts
02-Dec-17 19:08 49.105598 -61.439308 43 33001ft 560kts
02-Dec-17 19:09 49.215150 -61.273044 44 32989ft 560kts
02-Dec-17 19:10 49.324719 -61.103916 44 32991ft 560kts
02-Dec-17 19:11 49.432809 -60.935725 44 32993ft 555kts
02-Dec-17 19:12 49.540724 -60.767258 44 32995ft 555kts
02-Dec-17 19:13 49.648283 -60.598276 44 33083ft 554kts
02-Dec-17 19:14 49.755615 -60.428393 44 33294ft 554kts
02-Dec-17 19:15 49.860464 -60.260791 45 33112ft 554kts
02-Dec-17 19:16 49.967027 -60.088423 45 32996ft 554kts
02-Dec-17 19:17 50.073643 -59.916075 44 32998ft 554kts
02-Dec-17 19:18 50.179155 -59.746005 44 32993ft 554kts
02-Dec-17 19:19 50.286040 -59.572832 44 32995ft 554kts
02-Dec-17 19:20 50.391937 -59.398206 45 32997ft 554kts
02-Dec-17 19:21 50.495465 -59.225303 46 32992ft 555kts
02-Dec-17 19:22 50.600481 -59.048529 45 32994ft 554kts
02-Dec-17 19:23 50.705641 -58.871564 45 32995ft 554kts
02-Dec-17 19:24 50.810761 -58.693569 45 32998ft 554kts
02-Dec-17 19:25 50.915301 -58.515071 45 33000ft 554kts
02-Dec-17 19:26 51.017947 -58.338511 46 32999ft 554kts
02-Dec-17 19:27 51.119749 -58.161028 46 33009ft 554kts
02-Dec-17 19:28 51.224358 -57.980335 46 33232ft 555kts
02-Dec-17 19:29 51.328040 -57.799240 46 33237ft 554kts
02-Dec-17 19:30 51.431027 -57.616827 46 33239ft 554kts
02-Dec-17 19:31 51.533862 -57.433344 46 33241ft 554kts
02-Dec-17 19:32 51.635848 -57.249857 47 33236ft 554kts
02-Dec-17 19:33 51.737641 -57.064428 47 33238ft 554kts
02-Dec-17 19:34 51.839783 -56.878255 47 33240ft 554kts
02-Dec-17 19:35 51.941545 -56.691743 47 33268ft 554kts
02-Dec-17 19:36 52.042790 -56.504562 47 33271ft 554kts
02-Dec-17 19:37 52.143493 -56.317431 48 33260ft 554kts
02-Dec-17 19:38 52.244675 -56.128510 48 33261ft 554kts
02-Dec-17 19:39 52.345051 -55.938301 48 33263ft 554kts
02-Dec-17 19:40 52.437667 -55.737636 60 33266ft 555kts
02-Dec-17 19:41 52.503879 -55.509544 66 33267ft 554kts
02-Dec-17 19:42 52.568712 -55.280631 65 33262ft 554kts
02-Dec-17 19:43 52.637043 -55.053236 64 33264ft 555kts
02-Dec-17 19:44 52.705370 -54.826133 64 33266ft 555kts
02-Dec-17 19:45 52.773109 -54.597181 64 33268ft 555kts
02-Dec-17 19:46 52.839989 -54.368457 64 33270ft 555kts
02-Dec-17 19:47 52.906391 -54.138398 65 33266ft 554kts
02-Dec-17 19:48 52.972326 -53.907957 65 33268ft 554kts
02-Dec-17 19:49 53.037982 -53.677161 65 33270ft 554kts
02-Dec-17 19:50 53.103320 -53.445265 65 33270ft 554kts
02-Dec-17 19:51 53.169046 -53.213710 65 33260ft 554kts
02-Dec-17 19:52 53.233694 -52.980616 66 33262ft 554kts
02-Dec-17 19:53 53.297411 -52.746817 66 33264ft 554kts
02-Dec-17 19:54 53.360711 -52.512454 66 33266ft 554kts
02-Dec-17 19:55 53.423634 -52.277379 67 33261ft 554kts
02-Dec-17 19:56 53.485840 -52.041245 67 33263ft 554kts
02-Dec-17 19:57 53.547720 -51.804830 67 33265ft 554kts
02-Dec-17 19:58 53.609278 -51.567759 67 33267ft 554kts
02-Dec-17 19:59 53.670439 -51.329686 68 33266ft 554kts
02-Dec-17 20:00 53.730662 -51.091232 68 33265ft 554kts
02-Dec-17 20:01 53.790761 -50.851510 68 33267ft 554kts
02-Dec-17 20:02 53.850440 -50.611799 68 33269ft 554kts
02-Dec-17 20:03 53.909537 -50.371705 68 33271ft 554kts
02-Dec-17 20:04 53.968097 -50.130083 69 33266ft 554kts
02-Dec-17 20:05 54.026946 -49.888956 68 33268ft 554kts
02-Dec-17 20:06 54.087068 -49.648178 67 33270ft 554kts
02-Dec-17 20:07 54.147879 -49.407297 67 33265ft 554kts
02-Dec-17 20:08 54.207880 -49.165823 68 33260ft 554kts
02-Dec-17 20:09 54.266419 -48.922806 68 33262ft 554kts
02-Dec-17 20:10 54.324481 -48.679554 68 33264ft 554kts
02-Dec-17 20:11 54.382437 -48.434870 69 33257ft 560kts
02-Dec-17 20:12 54.440607 -48.185599 70 33261ft 571kts
02-Dec-17 20:13 54.498988 -47.931995 70 33264ft 571kts
02-Dec-17 20:14 54.557016 -47.678017 70 33267ft 572kts
02-Dec-17 20:15 54.605063 -47.465619 70 33269ft 572kts
02-Dec-17 20:16 54.671545 -47.167269 74 33266ft 571kts
02-Dec-17 20:17 54.718454 -46.953285 74 33268ft 571kts
02-Dec-17 20:18 54.783795 -46.653028 74 33271ft 572kts
02-Dec-17 20:19 54.838970 -46.396420 74 33194ft 571kts
02-Dec-17 20:20 54.884701 -46.180595 75 33188ft 571kts
02-Dec-17 20:21 54.947897 -45.877909 75 33190ft 570kts
02-Dec-17 20:22 54.992651 -45.661639 75 33194ft 571kts
02-Dec-17 20:23 55.045967 -45.401052 75 33196ft 571kts
02-Dec-17 20:24 55.098436 -45.140496 76 33192ft 570kts
02-Dec-17 20:25 55.151342 -44.880060 75 33177ft 571kts
02-Dec-17 20:26 55.203588 -44.618342 76 33180ft 570kts
02-Dec-17 20:27 55.254461 -44.355413 76 33183ft 570kts
02-Dec-17 20:28 55.304469 -44.092291 77 33178ft 570kts
02-Dec-17 20:29 55.354098 -43.828429 77 33181ft 570kts
02-Dec-17 20:30 55.403347 -43.563783 77 33184ft 570kts
02-Dec-17 20:31 55.451851 -43.299414 78 33180ft 569kts
02-Dec-17 20:32 55.499559 -43.034298 78 33182ft 569kts
02-Dec-17 20:33 55.546875 -42.768061 78 33185ft 569kts
02-Dec-17 20:34 55.593808 -42.500815 78 33187ft 569kts
02-Dec-17 20:35 55.639951 -42.234154 79 33183ft 568kts
02-Dec-17 20:36 55.685344 -41.966491 79 33186ft 568kts
02-Dec-17 20:37 55.730313 -41.698271 79 33189ft 568kts
02-Dec-17 20:38 55.774736 -41.429715 79 33191ft 568kts
02-Dec-17 20:39 55.818523 -41.160282 80 33187ft 567kts
02-Dec-17 20:40 55.861553 -40.890624 80 33190ft 567kts
02-Dec-17 20:41 55.904051 -40.621199 79 33192ft 567kts
02-Dec-17 20:42 55.946109 -40.350580 79 33195ft 567kts
02-Dec-17 20:43 55.987545 -40.079284 80 33191ft 567kts
02-Dec-17 20:44 56.040492 -39.812591 70 33194ft 575kts
02-Dec-17 20:45 56.109145 -39.553674 68 33183ft 577kts
02-Dec-17 20:46 56.176829 -39.293783 70 33162ft 575kts
02-Dec-17 20:47 56.240435 -39.031524 71 33166ft 574kts
02-Dec-17 20:48 56.303180 -38.767648 71 33169ft 574kts
02-Dec-17 20:49 56.365906 -38.503195 71 33172ft 575kts
02-Dec-17 20:50 56.427401 -38.241043 72 33167ft 574kts
02-Dec-17 20:51 56.488775 -37.974732 72 33171ft 574kts
02-Dec-17 20:52 56.549722 -37.707738 72 33174ft 574kts
02-Dec-17 20:53 56.610059 -37.440636 72 33176ft 574kts
02-Dec-17 20:54 56.669745 -37.172520 73 33173ft 573kts
02-Dec-17 20:55 56.728613 -36.903789 73 33175ft 573kts
02-Dec-17 20:56 56.787109 -36.634352 73 33178ft 573kts
02-Dec-17 20:57 56.845097 -36.364054 73 33181ft 573kts
02-Dec-17 20:58 56.902397 -36.092448 74 33177ft 572kts
02-Dec-17 20:59 56.958974 -35.820473 74 33180ft 572kts
02-Dec-17 21:00 57.014989 -35.548550 74 33183ft 572kts
02-Dec-17 21:01 57.070543 -35.275223 75 33178ft 571kts
02-Dec-17 21:02 57.126878 -34.994453 70 33166ft 588kts
02-Dec-17 21:03 57.183943 -34.712871 71 33170ft 588kts
02-Dec-17 21:04 57.239439 -34.429068 71 33174ft 588kts
02-Dec-17 21:05 57.293629 -34.144846 72 33167ft 588kts
02-Dec-17 21:06 57.347315 -33.859422 72 33170ft 588kts
02-Dec-17 21:07 57.400666 -33.573350 72 33174ft 588kts
02-Dec-17 21:08 57.453172 -33.287214 73 33167ft 588kts
02-Dec-17 21:09 57.505010 -32.998744 73 33171ft 588kts
02-Dec-17 21:10 57.556253 -32.710133 72 33174ft 588kts
02-Dec-17 21:11 57.606803 -32.421717 72 33178ft 588kts
02-Dec-17 21:12 57.656729 -32.131438 73 33171ft 588kts
02-Dec-17 21:13 57.704852 -31.846581 72 33119ft 573kts
02-Dec-17 21:14 57.752531 -31.561065 72 33122ft 574kts
02-Dec-17 21:15 57.799421 -31.275609 73 33115ft 575kts
02-Dec-17 21:16 57.845499 -30.989092 73 33119ft 575kts
02-Dec-17 21:17 57.891128 -30.701624 73 33122ft 575kts
02-Dec-17 21:18 57.936217 -30.413839 73 33125ft 575kts
02-Dec-17 21:19 57.980480 -30.125420 74 33118ft 575kts
02-Dec-17 21:20 58.012801 -29.831458 86 33122ft 574kts
02-Dec-17 21:21 58.019193 -29.531133 90 33124ft 573kts
02-Dec-17 21:22 58.026072 -29.231487 88 33117ft 573kts
02-Dec-17 21:23 58.036115 -28.931858 88 33120ft 574kts
02-Dec-17 21:24 58.045537 -28.631502 88 33123ft 574kts
02-Dec-17 21:25 58.053613 -28.333998 89 33124ft 574kts
02-Dec-17 21:26 58.061064 -28.032083 89 33116ft 572kts
02-Dec-17 21:27 58.067853 -27.731556 89 33122ft 574kts
02-Dec-17 21:28 58.073905 -27.430806 89 33125ft 574kts
02-Dec-17 21:29 58.079291 -27.129606 90 33118ft 575kts
02-Dec-17 21:30 58.083967 -26.828570 90 33121ft 575kts
02-Dec-17 21:31 58.087911 -26.526656 90 33124ft 575kts
02-Dec-17 21:32 58.091138 -26.225330 91 33117ft 574kts
02-Dec-17 21:33 58.093674 -25.923579 91 33120ft 575kts
02-Dec-17 21:34 58.095531 -25.621900 90 33123ft 575kts
02-Dec-17 21:35 58.096621 -25.320261 91 33121ft 575kts
02-Dec-17 21:36 58.097004 -25.018375 91 33119ft 575kts
02-Dec-17 21:37 58.096721 -24.716529 91 33122ft 575kts
02-Dec-17 21:38 58.095698 -24.415242 91 33125ft 575kts
02-Dec-17 21:39 58.093974 -24.112875 92 33120ft 575kts
02-Dec-17 21:40 58.091520 -23.810696 92 33121ft 575kts
02-Dec-17 21:41 58.088331 -23.509097 92 33124ft 575kts
02-Dec-17 21:42 58.084435 -23.207087 93 33117ft 575kts
02-Dec-17 21:43 58.079904 -22.905808 93 33120ft 575kts
02-Dec-17 21:44 58.074625 -22.604321 93 33123ft 575kts
02-Dec-17 21:45 58.068562 -22.302340 94 33122ft 579kts
02-Dec-17 21:46 58.061813 -21.998722 94 33119ft 579kts
02-Dec-17 21:47 58.054396 -21.695928 94 33122ft 579kts
02-Dec-17 21:48 58.046173 -21.393012 94 33125ft 579kts
02-Dec-17 21:49 58.037285 -21.090867 95 33118ft 578kts
02-Dec-17 21:50 58.027747 -20.788614 95 33121ft 578kts
02-Dec-17 21:51 58.017452 -20.486737 95 33124ft 578kts
02-Dec-17 21:52 58.006486 -20.184321 96 33117ft 578kts
02-Dec-17 21:53 57.986035 -19.885791 108 33120ft 572kts
02-Dec-17 21:54 57.933550 -19.605502 115 33122ft 568kts
02-Dec-17 21:55 57.878451 -19.328215 114 33121ft 569kts
02-Dec-17 21:56 57.827502 -19.047521 112 33241ft 570kts
02-Dec-17 21:57 57.776217 -18.766935 113 33336ft 569kts
02-Dec-17 21:58 57.723655 -18.488376 113 33339ft 569kts
02-Dec-17 21:59 57.670850 -18.212565 114 33332ft 569kts
02-Dec-17 22:00 57.617499 -17.936004 114 33334ft 569kts
02-Dec-17 22:01 57.563051 -17.659094 114 33336ft 569kts
02-Dec-17 22:02 57.508118 -17.384136 114 33339ft 568kts
02-Dec-17 22:03 57.452704 -17.109457 112 33325ft 577kts
02-Dec-17 22:04 57.395071 -16.827586 111 33335ft 585kts
02-Dec-17 22:05 57.339222 -16.559263 108 37294ft 522kts
02-Dec-17 22:06 57.285155 -16.302305 109 37339ft 546kts
02-Dec-17 22:07 57.230101 -16.042775 109 37337ft 545kts
02-Dec-17 22:08 57.174023 -15.783110 109 37339ft 545kts
02-Dec-17 22:09 57.117432 -15.524761 109 37340ft 545kts
02-Dec-17 22:10 57.060259 -15.266774 110 37338ft 545kts
02-Dec-17 22:11 57.003244 -15.009525 105 37335ft 543kts
02-Dec-17 22:12 56.981205 -14.739785 87 37342ft 534kts
02-Dec-17 22:13 56.975621 -14.468236 89 37342ft 535kts
02-Dec-17 22:14 56.961837 -14.197006 92 37339ft 537kts
02-Dec-17 22:15 56.944642 -13.924778 94 37363ft 542kts
02-Dec-17 22:16 56.918907 -13.654641 97 37342ft 540kts
02-Dec-17 22:17 56.890645 -13.385798 97 37333ft 540kts
02-Dec-17 22:18 56.861828 -13.116796 97 37331ft 540kts
02-Dec-17 22:19 56.833707 -12.847241 97 37332ft 540kts
02-Dec-17 22:20 56.805412 -12.578907 97 37334ft 540kts
02-Dec-17 22:21 56.776311 -12.310493 98 37331ft 541kts
02-Dec-17 22:22 56.746691 -12.042750 98 37333ft 541kts
02-Dec-17 22:23 56.716435 -11.774712 98 37334ft 541kts
02-Dec-17 22:24 56.685512 -11.507139 98 37336ft 541kts
02-Dec-17 22:25 56.654060 -11.240113 99 37333ft 542kts
02-Dec-17 22:26 56.622027 -10.972148 99 37326ft 539kts
02-Dec-17 22:27 56.589399 -10.705909 99 37336ft 542kts
02-Dec-17 22:28 56.556175 -10.439970 99 37331ft 548kts
02-Dec-17 22:29 56.524569 -10.190623 100 37334ft 551kts
02-Dec-17 22:30 56.487047 -9.921450 105 37337ft 554kts
02-Dec-17 22:31 56.432209 -9.661509 109 37338ft 555kts
02-Dec-17 22:32 56.383977 -9.446495 108 37366ft 555kts
02-Dec-17 22:33 56.320939 -9.152998 108 37363ft 555kts
02-Dec-17 22:34 56.265552 -8.894819 108 37366ft 555kts
02-Dec-17 22:35 56.218371 -8.679490 109 37367ft 555kts
02-Dec-17 22:36 56.161411 -8.423231 108 37369ft 555kts
02-Dec-17 22:37 56.096087 -8.131841 110 37362ft 557kts
02-Dec-17 22:38 56.038181 -7.876676 109 37377ft 551kts
02-Dec-17 22:39 55.990573 -7.670344 109 37373ft 539kts
02-Dec-17 22:40 55.923620 -7.382582 108 37369ft 541kts
02-Dec-17 22:41 55.877607 -7.187590 110 37357ft 542kts
02-Dec-17 22:42 55.817843 -6.941687 110 37345ft 543kts
02-Dec-17 22:43 55.758394 -6.696043 109 37334ft 542kts
02-Dec-17 22:44 55.698757 -6.450460 109 37335ft 543kts
02-Dec-17 22:45 55.639896 -6.210664 110 37333ft 543kts
02-Dec-17 22:46 55.579432 -5.966595 110 37340ft 544kts
02-Dec-17 22:47 55.518223 -5.723270 110 37390ft 544kts
02-Dec-17 22:48 55.456178 -5.479588 110 37393ft 545kts
02-Dec-17 22:49 55.394804 -5.240696 111 37390ft 545kts
02-Dec-17 22:50 55.332494 -4.999609 111 37338ft 545kts
02-Dec-17 22:51 55.269195 -4.758491 111 37339ft 545kts
02-Dec-17 22:52 55.205395 -4.518490 111 37341ft 545kts
02-Dec-17 22:53 55.142874 -4.285489 112 37338ft 545kts
02-Dec-17 22:54 55.078495 -4.046618 112 37340ft 545kts
02-Dec-17 22:55 55.013328 -3.808400 112 37342ft 544kts
02-Dec-17 22:56 54.947891 -3.572288 112 37263ft 544kts
02-Dec-17 22:57 54.884356 -3.345438 113 37239ft 532kts
02-Dec-17 22:58 54.823779 -3.134899 113 37272ft 522kts
02-Dec-17 22:59 54.759528 -2.910211 112 37280ft 522kts
02-Dec-17 23:00 54.694982 -2.685350 112 37281ft 521kts
02-Dec-17 23:01 54.630403 -2.462850 112 37256ft 520kts
02-Dec-17 23:02 54.566217 -2.243868 113 37246ft 509kts
02-Dec-17 23:03 54.502228 -2.026341 113 37255ft 512kts
02-Dec-17 23:04 54.437370 -1.808868 113 37257ft 512kts
02-Dec-17 23:05 54.372103 -1.592491 113 37258ft 512kts
02-Dec-17 23:06 54.306573 -1.377163 113 37261ft 512kts
02-Dec-17 23:07 54.240902 -1.162177 114 37277ft 512kts
02-Dec-17 23:08 54.175012 -0.948771 114 37283ft 512kts
02-Dec-17 23:09 54.108179 -0.735215 114 37268ft 512kts
02-Dec-17 23:10 54.041023 -0.522696 114 37261ft 512kts
02-Dec-17 23:11 53.970373 -0.312495 117 37261ft 513kts
02-Dec-17 23:12 53.897423 -0.105715 117 37261ft 513kts
02-Dec-17 23:13 53.823370 0.099524 118 37252ft 514kts
02-Dec-17 23:14 53.749496 0.304696 117 37254ft 513kts
02-Dec-17 23:15 53.675522 0.510616 117 37255ft 513kts
02-Dec-17 23:16 53.601329 0.715641 117 37258ft 512kts
02-Dec-17 23:17 53.527424 0.918859 117 37255ft 510kts
02-Dec-17 23:18 53.453070 1.120917 117 37256ft 510kts
02-Dec-17 23:19 53.378467 1.321527 117 37257ft 510kts
02-Dec-17 23:20 53.303234 1.522276 117 37258ft 510kts
02-Dec-17 23:21 53.228808 1.719663 118 37259ft 510kts
02-Dec-17 23:22 53.153252 1.919386 118 37260ft 510kts
02-Dec-17 23:23 53.077397 2.117272 118 37208ft 510kts
02-Dec-17 23:24 52.999086 2.319888 126 37207ft 523kts
02-Dec-17 23:25 52.923838 2.513004 128 37208ft 495kts
02-Dec-17 23:26 52.847821 2.703647 123 37203ft 522kts
02-Dec-17 23:27 52.769775 2.900176 118 37187ft 494kts
02-Dec-17 23:28 52.703012 3.098578 106 37200ft 493kts
02-Dec-17 23:29 52.658151 3.310887 104 37200ft 490kts
02-Dec-17 23:30 52.609522 3.519717 106 37200ft 492kts
02-Dec-17 23:31 52.559317 3.724322 107 37228ft 492kts
02-Dec-17 23:32 52.509148 3.931690 107 37202ft 491kts
02-Dec-17 23:33 52.458481 4.139397 107 37202ft 491kts
02-Dec-17 23:34 52.407271 4.346320 107 37200ft 490kts
02-Dec-17 23:35 52.355800 4.552603 107 37204ft 491kts
02-Dec-17 23:36 52.305264 4.753766 107 37231ft 491kts
02-Dec-17 23:37 52.253286 4.959234 107 37233ft 489kts
02-Dec-17 23:38 52.201176 5.162165 108 37233ft 489kts
02-Dec-17 23:39 52.149136 5.364661 105 37233ft 488kts
02-Dec-17 23:40 52.106386 5.572747 102 37233ft 485kts
02-Dec-17 23:41 52.065863 5.778321 103 37235ft 486kts
02-Dec-17 23:42 52.022758 5.985488 104 37235ft 485kts
02-Dec-17 23:43 51.978822 6.192227 104 37235ft 485kts
02-Dec-17 23:44 51.900481 6.371286 137 37242ft 508kts
02-Dec-17 23:45 51.817545 6.477893 133 37225ft 505kts
02-Dec-17 23:46 51.717464 6.633433 129 37253ft 503kts
02-Dec-17 23:47 51.619424 6.788835 131 37256ft 503kts
02-Dec-17 23:48 51.524035 6.934032 133 36054ft 512kts
02-Dec-17 23:49 51.403624 7.052217 151 33775ft 520kts
02-Dec-17 23:50 51.270429 7.145893 149 31657ft 525kts
02-Dec-17 23:51 51.140697 7.251469 147 29587ft 527kts
02-Dec-17 23:52 51.013948 7.367604 142 27542ft 529kts
02-Dec-17 23:53 50.892975 7.489129 143 25549ft 533kts
02-Dec-17 23:54 50.766227 7.607938 148 23548ft 541kts
02-Dec-17 23:55 50.629689 7.700146 155 21860ft 544kts
02-Dec-17 23:56 50.489784 7.788137 152 20163ft 537kts
02-Dec-17 23:57 50.385082 7.922412 118 18023ft 460kts
02-Dec-17 23:58 50.324588 8.085059 113 16192ft 414kts
02-Dec-17 23:59 50.267020 8.234424 117 14536ft 399kts
03-Dec-17 00:00 50.207374 8.378242 118 12899ft 392kts
03-Dec-17 00:01 50.161133 8.512352 102 11222ft 339kts
03-Dec-17 00:02 50.135594 8.645766 102 10298ft 268kts
03-Dec-17 00:03 50.126271 8.751828 79 9005ft 250kts
03-Dec-17 00:04 50.139561 8.856941 71 7261ft 240kts
03-Dec-17 00:05 50.155560 8.949795 121 5005ft 213kts
03-Dec-17 00:06 50.119353 8.923875 250 4364ft 204kts
03-Dec-17 00:07 50.102545 8.850107 248 3906ft 171kts
03-Dec-17 00:08 50.087789 8.787391 247 3127ft 149kts
03-Dec-17 00:09 50.073434 8.726798 247 2290ft 149kts
03-Dec-17 00:10 50.059176 8.666688 247 1478ft 148kts
03-Dec-17 00:11 50.045234 8.607534 247 704ft 140kts
03-Dec-17 00:12 50.033068 8.557263 251 378ft 55kts
03-Dec-17 00:13 50.034664 8.543900 340 378ft 40kts
03-Dec-17 00:14 50.039316 8.554588 69 378ft 46kts
03-Dec-17 00:15 50.040876 8.560739 36 378ft 0kts
03-Dec-17 00:16 50.044619 8.559692 344 378ft 20kts
03-Dec-17 00:17 50.046898 8.562925 337 378ft 4kts
03-Dec-17 00:18 50.047239 8.562714 339 378ft 0kts
03-Dec-17 00:19 50.047239 8.562714 339 378ft 0kts
03-Dec-17 00:20 50.047239 8.562714 339 378ft 0kts
03-Dec-17 00:21 50.047239 8.562714 339 378ft 0kts
03-Dec-17 00:22 50.047239 8.562714 339 378ft 0kts
03-Dec-17 00:23 50.047239 8.562714 339 378ft 0kts
03-Dec-17 00:24 50.047239 8.562714 339 378ft 0kts
03-Dec-17 00:25 50.047239 8.562714 339 378ft 0kts
03-Dec-17 00:26 50.047239 8.562714 339 378ft 0kts
03-Dec-17 00:27 50.047239 8.562714 339 378ft 0kts

Navigation Log

Ident Type
Flight plan parsing failed, navigation log unavailable